sensor_id;sensor_type;location;lat;lon;timestamp;P1;durP1;ratioP1;P2;durP2;ratioP2
253;SDS011;590;48.772;8.846;2022-09-02T00:02:07;6.57;;;6.17;;
253;SDS011;590;48.772;8.846;2022-09-02T00:04:37;6.70;;;6.30;;
253;SDS011;590;48.772;8.846;2022-09-02T00:07:05;7.53;;;7.13;;
253;SDS011;590;48.772;8.846;2022-09-02T00:09:33;7.23;;;6.83;;
253;SDS011;590;48.772;8.846;2022-09-02T00:12:03;7.30;;;6.90;;
253;SDS011;590;48.772;8.846;2022-09-02T00:14:32;6.60;;;6.20;;
253;SDS011;590;48.772;8.846;2022-09-02T00:17:02;7.57;;;7.17;;
253;SDS011;590;48.772;8.846;2022-09-02T00:19:30;8.77;;;7.10;;
253;SDS011;590;48.772;8.846;2022-09-02T00:22:00;6.47;;;6.07;;
253;SDS011;590;48.772;8.846;2022-09-02T00:24:28;7.00;;;6.60;;
253;SDS011;590;48.772;8.846;2022-09-02T00:26:56;7.83;;;7.43;;
253;SDS011;590;48.772;8.846;2022-09-02T00:29:25;8.50;;;8.00;;
253;SDS011;590;48.772;8.846;2022-09-02T00:31:53;7.77;;;7.37;;
253;SDS011;590;48.772;8.846;2022-09-02T00:34:23;7.43;;;7.03;;
253;SDS011;590;48.772;8.846;2022-09-02T00:36:51;6.67;;;6.27;;
253;SDS011;590;48.772;8.846;2022-09-02T00:39:20;6.43;;;6.03;;
253;SDS011;590;48.772;8.846;2022-09-02T00:41:49;6.90;;;6.50;;
253;SDS011;590;48.772;8.846;2022-09-02T00:44:19;7.57;;;7.17;;
253;SDS011;590;48.772;8.846;2022-09-02T00:46:47;8.03;;;7.63;;
253;SDS011;590;48.772;8.846;2022-09-02T00:49:16;7.00;;;6.60;;
253;SDS011;590;48.772;8.846;2022-09-02T00:51:51;7.00;;;6.60;;
253;SDS011;590;48.772;8.846;2022-09-02T00:54:23;7.53;;;6.50;;
253;SDS011;590;48.772;8.846;2022-09-02T00:56:53;7.07;;;6.67;;
253;SDS011;590;48.772;8.846;2022-09-02T00:59:22;7.00;;;6.60;;
253;SDS011;590;48.772;8.846;2022-09-02T01:01:54;7.00;;;6.60;;
253;SDS011;590;48.772;8.846;2022-09-02T01:04:23;6.40;;;6.00;;
253;SDS011;590;48.772;8.846;2022-09-02T01:06:51;6.67;;;6.27;;
253;SDS011;590;48.772;8.846;2022-09-02T01:09:19;8.57;;;8.07;;
253;SDS011;590;48.772;8.846;2022-09-02T01:11:49;6.60;;;6.20;;
253;SDS011;590;48.772;8.846;2022-09-02T01:14:18;7.10;;;6.70;;
253;SDS011;590;48.772;8.846;2022-09-02T01:16:49;7.03;;;6.63;;
253;SDS011;590;48.772;8.846;2022-09-02T01:19:20;6.80;;;6.40;;
253;SDS011;590;48.772;8.846;2022-09-02T01:21:52;7.03;;;6.63;;
253;SDS011;590;48.772;8.846;2022-09-02T01:24:22;7.27;;;6.87;;
253;SDS011;590;48.772;8.846;2022-09-02T01:26:54;6.70;;;6.30;;
253;SDS011;590;48.772;8.846;2022-09-02T01:29:24;6.70;;;6.30;;
253;SDS011;590;48.772;8.846;2022-09-02T01:31:54;7.07;;;6.67;;
253;SDS011;590;48.772;8.846;2022-09-02T01:34:22;6.67;;;6.27;;
253;SDS011;590;48.772;8.846;2022-09-02T01:36:52;7.40;;;7.00;;
253;SDS011;590;48.772;8.846;2022-09-02T01:39:20;6.93;;;6.53;;
253;SDS011;590;48.772;8.846;2022-09-02T01:41:47;6.47;;;6.10;;
253;SDS011;590;48.772;8.846;2022-09-02T01:44:15;7.87;;;7.47;;
253;SDS011;590;48.772;8.846;2022-09-02T01:46:44;6.20;;;5.90;;
253;SDS011;590;48.772;8.846;2022-09-02T01:49:12;7.00;;;6.60;;
253;SDS011;590;48.772;8.846;2022-09-02T01:51:40;5.97;;;5.67;;
253;SDS011;590;48.772;8.846;2022-09-02T01:54:10;6.80;;;6.40;;
253;SDS011;590;48.772;8.846;2022-09-02T01:56:38;5.90;;;5.60;;
253;SDS011;590;48.772;8.846;2022-09-02T01:59:06;7.27;;;6.87;;
253;SDS011;590;48.772;8.846;2022-09-02T02:01:36;8.10;;;7.70;;
253;SDS011;590;48.772;8.846;2022-09-02T02:04:04;7.43;;;7.03;;
253;SDS011;590;48.772;8.846;2022-09-02T02:06:38;6.93;;;6.53;;
253;SDS011;590;48.772;8.846;2022-09-02T02:09:08;6.23;;;5.90;;
253;SDS011;590;48.772;8.846;2022-09-02T02:11:38;7.00;;;6.60;;
253;SDS011;590;48.772;8.846;2022-09-02T02:14:06;6.67;;;6.27;;
253;SDS011;590;48.772;8.846;2022-09-02T02:16:35;7.30;;;6.90;;
253;SDS011;590;48.772;8.846;2022-09-02T02:19:03;6.63;;;6.23;;
253;SDS011;590;48.772;8.846;2022-09-02T02:21:32;6.17;;;5.87;;
253;SDS011;590;48.772;8.846;2022-09-02T02:23:59;5.97;;;5.67;;
253;SDS011;590;48.772;8.846;2022-09-02T02:26:29;6.07;;;5.77;;
253;SDS011;590;48.772;8.846;2022-09-02T02:28:58;6.47;;;6.07;;
253;SDS011;590;48.772;8.846;2022-09-02T02:31:26;6.70;;;6.30;;
253;SDS011;590;48.772;8.846;2022-09-02T02:33:54;7.20;;;6.80;;
253;SDS011;590;48.772;8.846;2022-09-02T02:36:22;6.63;;;6.23;;
253;SDS011;590;48.772;8.846;2022-09-02T02:38:50;6.80;;;6.40;;
253;SDS011;590;48.772;8.846;2022-09-02T02:41:18;6.70;;;6.30;;
253;SDS011;590;48.772;8.846;2022-09-02T02:43:47;6.43;;;6.07;;
253;SDS011;590;48.772;8.846;2022-09-02T02:46:15;6.17;;;5.87;;
253;SDS011;590;48.772;8.846;2022-09-02T02:48:44;6.13;;;5.83;;
253;SDS011;590;48.772;8.846;2022-09-02T02:51:12;6.90;;;6.50;;
253;SDS011;590;48.772;8.846;2022-09-02T02:53:40;7.10;;;6.70;;
253;SDS011;590;48.772;8.846;2022-09-02T02:56:09;6.00;;;5.70;;
253;SDS011;590;48.772;8.846;2022-09-02T02:58:37;6.10;;;5.80;;
253;SDS011;590;48.772;8.846;2022-09-02T03:01:06;6.33;;;5.97;;
253;SDS011;590;48.772;8.846;2022-09-02T03:03:34;7.40;;;7.00;;
253;SDS011;590;48.772;8.846;2022-09-02T03:06:02;6.53;;;6.13;;
253;SDS011;590;48.772;8.846;2022-09-02T03:08:30;6.87;;;6.47;;
253;SDS011;590;48.772;8.846;2022-09-02T03:11:02;7.00;;;6.60;;
253;SDS011;590;48.772;8.846;2022-09-02T03:13:33;7.00;;;6.60;;
253;SDS011;590;48.772;8.846;2022-09-02T03:16:02;7.10;;;6.70;;
253;SDS011;590;48.772;8.846;2022-09-02T03:18:35;6.77;;;6.37;;
253;SDS011;590;48.772;8.846;2022-09-02T03:21:05;5.50;;;5.20;;
253;SDS011;590;48.772;8.846;2022-09-02T03:23:34;5.47;;;5.17;;
253;SDS011;590;48.772;8.846;2022-09-02T03:26:07;5.67;;;5.37;;
253;SDS011;590;48.772;8.846;2022-09-02T03:28:37;6.23;;;5.90;;
253;SDS011;590;48.772;8.846;2022-09-02T03:31:05;5.87;;;5.57;;
253;SDS011;590;48.772;8.846;2022-09-02T03:33:33;6.10;;;5.80;;
253;SDS011;590;48.772;8.846;2022-09-02T03:36:03;5.87;;;5.57;;
253;SDS011;590;48.772;8.846;2022-09-02T03:38:33;6.07;;;5.77;;
253;SDS011;590;48.772;8.846;2022-09-02T03:41:04;5.90;;;5.60;;
253;SDS011;590;48.772;8.846;2022-09-02T03:43:32;6.10;;;5.80;;
253;SDS011;590;48.772;8.846;2022-09-02T03:46:00;5.87;;;5.57;;
253;SDS011;590;48.772;8.846;2022-09-02T03:48:28;6.73;;;6.33;;
253;SDS011;590;48.772;8.846;2022-09-02T03:50:56;6.37;;;6.00;;
253;SDS011;590;48.772;8.846;2022-09-02T03:53:26;7.10;;;6.70;;
253;SDS011;590;48.772;8.846;2022-09-02T03:55:54;5.97;;;5.67;;
253;SDS011;590;48.772;8.846;2022-09-02T03:58:22;6.83;;;6.43;;
253;SDS011;590;48.772;8.846;2022-09-02T04:00:50;6.53;;;6.13;;
253;SDS011;590;48.772;8.846;2022-09-02T04:03:19;7.50;;;7.10;;
253;SDS011;590;48.772;8.846;2022-09-02T04:05:50;5.50;;;5.20;;
253;SDS011;590;48.772;8.846;2022-09-02T04:08:19;6.57;;;6.17;;
253;SDS011;590;48.772;8.846;2022-09-02T04:10:48;7.20;;;6.80;;
253;SDS011;590;48.772;8.846;2022-09-02T04:13:17;6.90;;;6.50;;
253;SDS011;590;48.772;8.846;2022-09-02T04:15:45;7.10;;;6.70;;
253;SDS011;590;48.772;8.846;2022-09-02T04:18:15;6.67;;;6.27;;
253;SDS011;590;48.772;8.846;2022-09-02T04:20:43;6.13;;;5.83;;
253;SDS011;590;48.772;8.846;2022-09-02T04:23:13;5.80;;;5.50;;
253;SDS011;590;48.772;8.846;2022-09-02T04:25:44;7.47;;;7.07;;
253;SDS011;590;48.772;8.846;2022-09-02T04:28:18;7.40;;;7.00;;
253;SDS011;590;48.772;8.846;2022-09-02T04:30:46;7.40;;;7.00;;
253;SDS011;590;48.772;8.846;2022-09-02T04:33:14;7.40;;;7.00;;
253;SDS011;590;48.772;8.846;2022-09-02T04:35:42;5.70;;;5.40;;
253;SDS011;590;48.772;8.846;2022-09-02T04:38:11;6.23;;;5.90;;
253;SDS011;590;48.772;8.846;2022-09-02T04:40:40;6.60;;;6.20;;
253;SDS011;590;48.772;8.846;2022-09-02T04:43:09;7.10;;;6.70;;
253;SDS011;590;48.772;8.846;2022-09-02T04:45:39;6.20;;;5.90;;
253;SDS011;590;48.772;8.846;2022-09-02T04:48:09;6.40;;;6.00;;
253;SDS011;590;48.772;8.846;2022-09-02T04:50:38;6.63;;;6.23;;
253;SDS011;590;48.772;8.846;2022-09-02T04:53:08;7.10;;;6.70;;
253;SDS011;590;48.772;8.846;2022-09-02T04:55:39;6.97;;;6.57;;
253;SDS011;590;48.772;8.846;2022-09-02T04:58:09;7.83;;;7.43;;
253;SDS011;590;48.772;8.846;2022-09-02T05:00:37;6.33;;;5.97;;
253;SDS011;590;48.772;8.846;2022-09-02T05:03:07;6.90;;;6.50;;
253;SDS011;590;48.772;8.846;2022-09-02T05:05:39;6.43;;;6.03;;
253;SDS011;590;48.772;8.846;2022-09-02T05:08:07;6.40;;;6.00;;
253;SDS011;590;48.772;8.846;2022-09-02T05:10:38;6.73;;;6.30;;
253;SDS011;590;48.772;8.846;2022-09-02T05:13:07;6.90;;;6.50;;
253;SDS011;590;48.772;8.846;2022-09-02T05:15:37;5.93;;;5.63;;
253;SDS011;590;48.772;8.846;2022-09-02T05:18:08;6.00;;;5.70;;
253;SDS011;590;48.772;8.846;2022-09-02T05:20:36;5.60;;;5.30;;
253;SDS011;590;48.772;8.846;2022-09-02T05:23:09;4.97;;;4.67;;
253;SDS011;590;48.772;8.846;2022-09-02T05:25:37;5.63;;;5.33;;
253;SDS011;590;48.772;8.846;2022-09-02T05:28:07;5.50;;;5.20;;
253;SDS011;590;48.772;8.846;2022-09-02T05:30:35;6.17;;;5.87;;
253;SDS011;590;48.772;8.846;2022-09-02T05:33:04;5.80;;;5.50;;
253;SDS011;590;48.772;8.846;2022-09-02T05:35:39;5.93;;;5.63;;
253;SDS011;590;48.772;8.846;2022-09-02T05:38:11;6.60;;;6.20;;
253;SDS011;590;48.772;8.846;2022-09-02T05:40:40;7.20;;;6.80;;
253;SDS011;590;48.772;8.846;2022-09-02T05:43:08;5.80;;;5.50;;
253;SDS011;590;48.772;8.846;2022-09-02T05:45:36;6.00;;;5.70;;
253;SDS011;590;48.772;8.846;2022-09-02T05:48:04;5.50;;;5.20;;
253;SDS011;590;48.772;8.846;2022-09-02T05:50:54;6.60;;;6.20;;
253;SDS011;590;48.772;8.846;2022-09-02T05:53:23;6.73;;;6.33;;
253;SDS011;590;48.772;8.846;2022-09-02T05:55:52;7.03;;;6.63;;
253;SDS011;590;48.772;8.846;2022-09-02T05:58:40;6.33;;;5.97;;
253;SDS011;590;48.772;8.846;2022-09-02T06:01:30;7.00;;;6.60;;
253;SDS011;590;48.772;8.846;2022-09-02T06:03:58;5.50;;;5.20;;
253;SDS011;590;48.772;8.846;2022-09-02T06:06:30;6.13;;;5.83;;
253;SDS011;590;48.772;8.846;2022-09-02T06:09:06;6.93;;;6.53;;
253;SDS011;590;48.772;8.846;2022-09-02T06:14:48;6.07;;;5.77;;
253;SDS011;590;48.772;8.846;2022-09-02T06:17:16;6.20;;;5.90;;
253;SDS011;590;48.772;8.846;2022-09-02T06:19:44;6.00;;;5.70;;
253;SDS011;590;48.772;8.846;2022-09-02T06:22:14;5.27;;;4.97;;
253;SDS011;590;48.772;8.846;2022-09-02T06:24:42;5.43;;;5.13;;
253;SDS011;590;48.772;8.846;2022-09-02T06:27:10;5.90;;;5.60;;
253;SDS011;590;48.772;8.846;2022-09-02T06:29:38;6.00;;;5.70;;
253;SDS011;590;48.772;8.846;2022-09-02T06:32:06;5.57;;;5.27;;
253;SDS011;590;48.772;8.846;2022-09-02T06:34:34;5.20;;;4.90;;
253;SDS011;590;48.772;8.846;2022-09-02T06:37:02;5.43;;;5.13;;
253;SDS011;590;48.772;8.846;2022-09-02T06:39:33;5.57;;;5.27;;
253;SDS011;590;48.772;8.846;2022-09-02T06:42:03;4.97;;;4.67;;
253;SDS011;590;48.772;8.846;2022-09-02T06:44:31;5.53;;;5.23;;
253;SDS011;590;48.772;8.846;2022-09-02T06:46:59;5.63;;;5.33;;
253;SDS011;590;48.772;8.846;2022-09-02T06:49:27;6.03;;;5.73;;
253;SDS011;590;48.772;8.846;2022-09-02T06:51:55;5.83;;;5.53;;
253;SDS011;590;48.772;8.846;2022-09-02T06:54:25;5.40;;;5.10;;
253;SDS011;590;48.772;8.846;2022-09-02T06:56:55;5.13;;;4.83;;
253;SDS011;590;48.772;8.846;2022-09-02T06:59:23;4.70;;;4.40;;
253;SDS011;590;48.772;8.846;2022-09-02T07:01:52;4.93;;;4.63;;
253;SDS011;590;48.772;8.846;2022-09-02T07:04:20;4.80;;;4.50;;
253;SDS011;590;48.772;8.846;2022-09-02T07:07:06;5.07;;;4.77;;
253;SDS011;590;48.772;8.846;2022-09-02T07:09:37;4.53;;;4.23;;
253;SDS011;590;48.772;8.846;2022-09-02T07:12:07;4.40;;;4.10;;
253;SDS011;590;48.772;8.846;2022-09-02T07:14:35;3.80;;;3.60;;
253;SDS011;590;48.772;8.846;2022-09-02T07:17:04;3.50;;;3.30;;
253;SDS011;590;48.772;8.846;2022-09-02T07:19:33;3.63;;;3.43;;
253;SDS011;590;48.772;8.846;2022-09-02T07:22:02;3.80;;;3.60;;
253;SDS011;590;48.772;8.846;2022-09-02T07:24:30;3.70;;;3.50;;
253;SDS011;590;48.772;8.846;2022-09-02T07:26:58;3.60;;;3.40;;
253;SDS011;590;48.772;8.846;2022-09-02T07:29:28;3.50;;;3.30;;
253;SDS011;590;48.772;8.846;2022-09-02T07:31:56;3.27;;;3.07;;
253;SDS011;590;48.772;8.846;2022-09-02T07:34:24;3.90;;;3.50;;
253;SDS011;590;48.772;8.846;2022-09-02T07:36:52;3.30;;;3.10;;
253;SDS011;590;48.772;8.846;2022-09-02T07:39:27;4.03;;;3.83;;
253;SDS011;590;48.772;8.846;2022-09-02T07:41:54;3.17;;;2.97;;
253;SDS011;590;48.772;8.846;2022-09-02T07:44:22;3.70;;;3.50;;
253;SDS011;590;48.772;8.846;2022-09-02T07:46:52;2.90;;;2.70;;
253;SDS011;590;48.772;8.846;2022-09-02T07:49:20;3.73;;;3.30;;
253;SDS011;590;48.772;8.846;2022-09-02T07:51:49;3.23;;;3.00;;
253;SDS011;590;48.772;8.846;2022-09-02T07:54:19;3.93;;;3.33;;
253;SDS011;590;48.772;8.846;2022-09-02T07:56:49;3.00;;;2.80;;
253;SDS011;590;48.772;8.846;2022-09-02T07:59:17;2.63;;;2.40;;
253;SDS011;590;48.772;8.846;2022-09-02T08:01:47;3.03;;;2.83;;
253;SDS011;590;48.772;8.846;2022-09-02T08:04:18;3.13;;;2.97;;
253;SDS011;590;48.772;8.846;2022-09-02T08:06:48;2.57;;;2.37;;
253;SDS011;590;48.772;8.846;2022-09-02T08:09:18;2.30;;;2.10;;
253;SDS011;590;48.772;8.846;2022-09-02T08:11:47;2.90;;;2.50;;
253;SDS011;590;48.772;8.846;2022-09-02T08:14:17;2.90;;;2.70;;
253;SDS011;590;48.772;8.846;2022-09-02T08:16:50;3.57;;;2.27;;
253;SDS011;590;48.772;8.846;2022-09-02T08:19:21;2.27;;;2.07;;
253;SDS011;590;48.772;8.846;2022-09-02T08:21:50;3.33;;;2.30;;
253;SDS011;590;48.772;8.846;2022-09-02T08:24:18;1.93;;;1.83;;
253;SDS011;590;48.772;8.846;2022-09-02T08:26:46;1.60;;;1.50;;
253;SDS011;590;48.772;8.846;2022-09-02T08:29:14;2.37;;;2.20;;
253;SDS011;590;48.772;8.846;2022-09-02T08:31:42;1.90;;;1.80;;
253;SDS011;590;48.772;8.846;2022-09-02T08:34:10;1.50;;;1.40;;
253;SDS011;590;48.772;8.846;2022-09-02T08:36:39;1.47;;;1.40;;
253;SDS011;590;48.772;8.846;2022-09-02T08:39:19;3.37;;;2.20;;
253;SDS011;590;48.772;8.846;2022-09-02T08:41:53;1.93;;;1.90;;
253;SDS011;590;48.772;8.846;2022-09-02T08:44:29;2.27;;;2.07;;
253;SDS011;590;48.772;8.846;2022-09-02T08:47:03;3.23;;;1.60;;
253;SDS011;590;48.772;8.846;2022-09-02T08:49:35;2.47;;;2.30;;
253;SDS011;590;48.772;8.846;2022-09-02T08:52:08;2.00;;;1.90;;
253;SDS011;590;48.772;8.846;2022-09-02T08:54:44;6.00;;;2.30;;
253;SDS011;590;48.772;8.846;2022-09-02T08:57:17;1.90;;;1.77;;
253;SDS011;590;48.772;8.846;2022-09-02T08:59:45;1.80;;;1.67;;
253;SDS011;590;48.772;8.846;2022-09-02T09:02:20;4.43;;;2.00;;
253;SDS011;590;48.772;8.846;2022-09-02T09:08:02;1.77;;;1.67;;
253;SDS011;590;48.772;8.846;2022-09-02T09:10:42;2.13;;;1.97;;
253;SDS011;590;48.772;8.846;2022-09-02T09:16:32;1.87;;;1.70;;
253;SDS011;590;48.772;8.846;2022-09-02T09:19:07;2.43;;;2.10;;
253;SDS011;590;48.772;8.846;2022-09-02T09:21:38;1.43;;;1.33;;
253;SDS011;590;48.772;8.846;2022-09-02T09:24:13;2.50;;;2.30;;
253;SDS011;590;48.772;8.846;2022-09-02T09:26:51;1.63;;;1.60;;
253;SDS011;590;48.772;8.846;2022-09-02T09:29:20;1.83;;;1.77;;
253;SDS011;590;48.772;8.846;2022-09-02T09:31:55;2.00;;;1.90;;
253;SDS011;590;48.772;8.846;2022-09-02T09:37:27;1.77;;;1.67;;
253;SDS011;590;48.772;8.846;2022-09-02T09:42:55;2.00;;;1.90;;
253;SDS011;590;48.772;8.846;2022-09-02T09:45:25;2.10;;;1.90;;
253;SDS011;590;48.772;8.846;2022-09-02T09:48:16;2.37;;;1.90;;
253;SDS011;590;48.772;8.846;2022-09-02T09:50:49;3.30;;;1.80;;
253;SDS011;590;48.772;8.846;2022-09-02T09:53:39;1.87;;;1.70;;
253;SDS011;590;48.772;8.846;2022-09-02T09:56:21;1.97;;;1.87;;
253;SDS011;590;48.772;8.846;2022-09-02T09:59:03;4.60;;;2.03;;
253;SDS011;590;48.772;8.846;2022-09-02T10:01:33;1.70;;;1.60;;
253;SDS011;590;48.772;8.846;2022-09-02T10:04:03;2.50;;;2.27;;
253;SDS011;590;48.772;8.846;2022-09-02T10:06:56;1.87;;;1.77;;
253;SDS011;590;48.772;8.846;2022-09-02T10:09:29;1.80;;;1.70;;
253;SDS011;590;48.772;8.846;2022-09-02T10:12:00;2.27;;;1.77;;
253;SDS011;590;48.772;8.846;2022-09-02T10:14:34;2.20;;;2.00;;
253;SDS011;590;48.772;8.846;2022-09-02T10:17:19;2.83;;;1.60;;
253;SDS011;590;48.772;8.846;2022-09-02T10:19:54;2.13;;;1.37;;
253;SDS011;590;48.772;8.846;2022-09-02T10:25:27;1.70;;;1.60;;
253;SDS011;590;48.772;8.846;2022-09-02T10:28:02;1.77;;;1.70;;
253;SDS011;590;48.772;8.846;2022-09-02T10:30:35;2.57;;;2.40;;
253;SDS011;590;48.772;8.846;2022-09-02T10:33:18;2.23;;;2.07;;
253;SDS011;590;48.772;8.846;2022-09-02T10:35:55;2.23;;;2.03;;
253;SDS011;590;48.772;8.846;2022-09-02T10:38:35;2.20;;;2.00;;
253;SDS011;590;48.772;8.846;2022-09-02T10:41:12;2.27;;;1.90;;
253;SDS011;590;48.772;8.846;2022-09-02T10:43:59;2.40;;;2.03;;
253;SDS011;590;48.772;8.846;2022-09-02T10:46:47;1.63;;;1.53;;
253;SDS011;590;48.772;8.846;2022-09-02T10:49:25;2.10;;;1.80;;
253;SDS011;590;48.772;8.846;2022-09-02T10:52:06;1.83;;;1.77;;
253;SDS011;590;48.772;8.846;2022-09-02T10:54:42;1.87;;;1.77;;
253;SDS011;590;48.772;8.846;2022-09-02T10:57:19;1.90;;;1.80;;
253;SDS011;590;48.772;8.846;2022-09-02T10:59:53;1.70;;;1.60;;
253;SDS011;590;48.772;8.846;2022-09-02T11:02:29;2.43;;;1.70;;
253;SDS011;590;48.772;8.846;2022-09-02T11:05:03;1.70;;;1.60;;
253;SDS011;590;48.772;8.846;2022-09-02T11:07:36;1.83;;;1.73;;
253;SDS011;590;48.772;8.846;2022-09-02T11:10:14;2.00;;;1.90;;
253;SDS011;590;48.772;8.846;2022-09-02T11:12:46;1.90;;;1.73;;
253;SDS011;590;48.772;8.846;2022-09-02T11:15:20;3.07;;;2.27;;
253;SDS011;590;48.772;8.846;2022-09-02T11:18:08;1.67;;;1.60;;
253;SDS011;590;48.772;8.846;2022-09-02T11:20:42;2.10;;;1.50;;
253;SDS011;590;48.772;8.846;2022-09-02T11:23:17;1.70;;;1.60;;
253;SDS011;590;48.772;8.846;2022-09-02T11:25:52;1.73;;;1.63;;
253;SDS011;590;48.772;8.846;2022-09-02T11:28:28;1.23;;;1.13;;
253;SDS011;590;48.772;8.846;2022-09-02T11:31:02;1.53;;;1.47;;
253;SDS011;590;48.772;8.846;2022-09-02T11:33:37;2.07;;;1.43;;
253;SDS011;590;48.772;8.846;2022-09-02T11:36:13;2.20;;;2.00;;
253;SDS011;590;48.772;8.846;2022-09-02T11:38:44;1.27;;;1.27;;
253;SDS011;590;48.772;8.846;2022-09-02T11:41:24;1.90;;;1.47;;
253;SDS011;590;48.772;8.846;2022-09-02T11:44:04;1.77;;;1.43;;
253;SDS011;590;48.772;8.846;2022-09-02T11:47:01;2.00;;;1.80;;
253;SDS011;590;48.772;8.846;2022-09-02T11:49:45;1.77;;;1.70;;
253;SDS011;590;48.772;8.846;2022-09-02T11:52:37;2.23;;;1.40;;
253;SDS011;590;48.772;8.846;2022-09-02T11:55:23;1.60;;;1.50;;
253;SDS011;590;48.772;8.846;2022-09-02T11:57:59;1.43;;;1.33;;
253;SDS011;590;48.772;8.846;2022-09-02T12:00:29;1.93;;;1.20;;
253;SDS011;590;48.772;8.846;2022-09-02T12:03:01;1.60;;;1.50;;
253;SDS011;590;48.772;8.846;2022-09-02T12:06:06;1.60;;;1.50;;
253;SDS011;590;48.772;8.846;2022-09-02T12:11:47;1.53;;;1.43;;
253;SDS011;590;48.772;8.846;2022-09-02T12:17:34;1.67;;;1.57;;
253;SDS011;590;48.772;8.846;2022-09-02T12:20:06;1.30;;;1.20;;
253;SDS011;590;48.772;8.846;2022-09-02T12:22:36;1.40;;;1.30;;
253;SDS011;590;48.772;8.846;2022-09-02T12:28:09;1.87;;;1.77;;
253;SDS011;590;48.772;8.846;2022-09-02T12:31:10;1.17;;;1.10;;
253;SDS011;590;48.772;8.846;2022-09-02T12:33:43;1.93;;;1.30;;
253;SDS011;590;48.772;8.846;2022-09-02T12:42:20;1.40;;;1.30;;
253;SDS011;590;48.772;8.846;2022-09-02T12:45:04;1.90;;;1.67;;
253;SDS011;590;48.772;8.846;2022-09-02T12:47:41;1.87;;;1.53;;
253;SDS011;590;48.772;8.846;2022-09-02T12:50:20;1.77;;;1.67;;
253;SDS011;590;48.772;8.846;2022-09-02T12:53:05;1.50;;;1.43;;
253;SDS011;590;48.772;8.846;2022-09-02T12:55:38;1.47;;;1.40;;
253;SDS011;590;48.772;8.846;2022-09-02T12:58:09;2.00;;;1.70;;
253;SDS011;590;48.772;8.846;2022-09-02T13:00:44;1.90;;;1.60;;
253;SDS011;590;48.772;8.846;2022-09-02T13:03:31;2.77;;;1.83;;
253;SDS011;590;48.772;8.846;2022-09-02T13:06:13;1.50;;;1.40;;
253;SDS011;590;48.772;8.846;2022-09-02T13:09:07;1.70;;;1.60;;
253;SDS011;590;48.772;8.846;2022-09-02T13:15:00;1.70;;;1.60;;
253;SDS011;590;48.772;8.846;2022-09-02T13:17:40;1.53;;;1.47;;
253;SDS011;590;48.772;8.846;2022-09-02T13:23:34;1.80;;;1.70;;
253;SDS011;590;48.772;8.846;2022-09-02T13:26:23;1.90;;;1.80;;
253;SDS011;590;48.772;8.846;2022-09-02T13:29:21;1.33;;;1.30;;
253;SDS011;590;48.772;8.846;2022-09-02T13:32:11;1.73;;;1.50;;
253;SDS011;590;48.772;8.846;2022-09-02T13:34:42;2.13;;;1.97;;
253;SDS011;590;48.772;8.846;2022-09-02T13:37:27;2.73;;;2.53;;
253;SDS011;590;48.772;8.846;2022-09-02T13:39:58;1.83;;;1.73;;
253;SDS011;590;48.772;8.846;2022-09-02T13:42:30;1.80;;;1.70;;
253;SDS011;590;48.772;8.846;2022-09-02T13:45:11;2.03;;;1.90;;
253;SDS011;590;48.772;8.846;2022-09-02T13:47:41;1.80;;;1.77;;
253;SDS011;590;48.772;8.846;2022-09-02T13:50:11;1.80;;;1.70;;
253;SDS011;590;48.772;8.846;2022-09-02T13:52:41;1.80;;;1.70;;
253;SDS011;590;48.772;8.846;2022-09-02T13:55:32;2.13;;;1.97;;
253;SDS011;590;48.772;8.846;2022-09-02T13:58:07;2.50;;;2.30;;
253;SDS011;590;48.772;8.846;2022-09-02T14:00:48;1.77;;;1.67;;
253;SDS011;590;48.772;8.846;2022-09-02T14:03:16;1.90;;;1.87;;
253;SDS011;590;48.772;8.846;2022-09-02T14:05:48;2.13;;;1.97;;
253;SDS011;590;48.772;8.846;2022-09-02T14:08:18;2.70;;;2.50;;
253;SDS011;590;48.772;8.846;2022-09-02T14:10:51;1.97;;;1.87;;
253;SDS011;590;48.772;8.846;2022-09-02T14:13:20;2.90;;;2.10;;
253;SDS011;590;48.772;8.846;2022-09-02T14:15:49;3.43;;;1.97;;
253;SDS011;590;48.772;8.846;2022-09-02T14:18:17;4.00;;;2.30;;
253;SDS011;590;48.772;8.846;2022-09-02T14:20:57;2.00;;;1.90;;
253;SDS011;590;48.772;8.846;2022-09-02T14:23:27;2.07;;;1.93;;
253;SDS011;590;48.772;8.846;2022-09-02T14:26:00;2.57;;;2.10;;
253;SDS011;590;48.772;8.846;2022-09-02T14:28:29;2.50;;;2.10;;
253;SDS011;590;48.772;8.846;2022-09-02T14:31:00;1.83;;;1.73;;
253;SDS011;590;48.772;8.846;2022-09-02T14:33:39;2.43;;;2.27;;
253;SDS011;590;48.772;8.846;2022-09-02T14:36:11;2.53;;;1.70;;
253;SDS011;590;48.772;8.846;2022-09-02T14:38:56;1.80;;;1.70;;
253;SDS011;590;48.772;8.846;2022-09-02T14:41:40;1.97;;;1.90;;
253;SDS011;590;48.772;8.846;2022-09-02T14:44:14;2.07;;;1.93;;
253;SDS011;590;48.772;8.846;2022-09-02T14:46:45;1.90;;;1.80;;
253;SDS011;590;48.772;8.846;2022-09-02T14:49:18;2.20;;;2.00;;
253;SDS011;590;48.772;8.846;2022-09-02T14:51:49;2.83;;;2.57;;
253;SDS011;590;48.772;8.846;2022-09-02T14:54:34;1.73;;;1.63;;
253;SDS011;590;48.772;8.846;2022-09-02T14:57:06;4.20;;;2.17;;
253;SDS011;590;48.772;8.846;2022-09-02T14:59:48;3.73;;;2.27;;
253;SDS011;590;48.772;8.846;2022-09-02T15:02:23;3.00;;;2.10;;
253;SDS011;590;48.772;8.846;2022-09-02T15:04:58;2.47;;;2.27;;
253;SDS011;590;48.772;8.846;2022-09-02T15:07:27;2.43;;;2.23;;
253;SDS011;590;48.772;8.846;2022-09-02T15:09:55;2.47;;;2.27;;
253;SDS011;590;48.772;8.846;2022-09-02T15:12:26;3.70;;;2.33;;
253;SDS011;590;48.772;8.846;2022-09-02T15:15:02;2.50;;;2.30;;
253;SDS011;590;48.772;8.846;2022-09-02T15:17:30;2.00;;;1.90;;
253;SDS011;590;48.772;8.846;2022-09-02T15:19:58;2.10;;;1.97;;
253;SDS011;590;48.772;8.846;2022-09-02T15:22:26;1.73;;;1.70;;
253;SDS011;590;48.772;8.846;2022-09-02T15:24:55;1.70;;;1.60;;
253;SDS011;590;48.772;8.846;2022-09-02T15:27:23;2.63;;;2.20;;
253;SDS011;590;48.772;8.846;2022-09-02T15:29:52;3.23;;;1.83;;
253;SDS011;590;48.772;8.846;2022-09-02T15:32:20;2.07;;;1.87;;
253;SDS011;590;48.772;8.846;2022-09-02T15:34:48;2.20;;;1.87;;
253;SDS011;590;48.772;8.846;2022-09-02T15:37:16;2.40;;;2.20;;
253;SDS011;590;48.772;8.846;2022-09-02T15:39:44;2.07;;;1.93;;
253;SDS011;590;48.772;8.846;2022-09-02T15:42:12;2.17;;;2.00;;
253;SDS011;590;48.772;8.846;2022-09-02T15:44:53;1.93;;;1.83;;
253;SDS011;590;48.772;8.846;2022-09-02T15:47:21;2.50;;;2.30;;
253;SDS011;590;48.772;8.846;2022-09-02T15:49:49;2.50;;;2.30;;
253;SDS011;590;48.772;8.846;2022-09-02T15:52:18;3.33;;;1.80;;
253;SDS011;590;48.772;8.846;2022-09-02T15:54:46;2.43;;;2.23;;
253;SDS011;590;48.772;8.846;2022-09-02T15:57:14;2.43;;;2.23;;
253;SDS011;590;48.772;8.846;2022-09-02T15:59:42;1.83;;;1.73;;
253;SDS011;590;48.772;8.846;2022-09-02T16:02:11;2.57;;;1.90;;
253;SDS011;590;48.772;8.846;2022-09-02T16:04:39;2.20;;;2.00;;
253;SDS011;590;48.772;8.846;2022-09-02T16:07:07;2.17;;;2.00;;
253;SDS011;590;48.772;8.846;2022-09-02T16:09:42;2.33;;;2.03;;
253;SDS011;590;48.772;8.846;2022-09-02T16:12:10;2.00;;;1.90;;
253;SDS011;590;48.772;8.846;2022-09-02T16:14:58;1.77;;;1.47;;
253;SDS011;590;48.772;8.846;2022-09-02T16:17:27;1.93;;;1.83;;
253;SDS011;590;48.772;8.846;2022-09-02T16:19:55;2.70;;;2.30;;
253;SDS011;590;48.772;8.846;2022-09-02T16:22:24;2.03;;;1.90;;
253;SDS011;590;48.772;8.846;2022-09-02T16:24:52;2.40;;;2.00;;
253;SDS011;590;48.772;8.846;2022-09-02T16:27:20;2.33;;;2.10;;
253;SDS011;590;48.772;8.846;2022-09-02T16:30:02;1.80;;;1.70;;
253;SDS011;590;48.772;8.846;2022-09-02T16:32:32;3.53;;;2.30;;
253;SDS011;590;48.772;8.846;2022-09-02T16:35:00;2.50;;;2.30;;
253;SDS011;590;48.772;8.846;2022-09-02T16:37:27;1.83;;;1.73;;
253;SDS011;590;48.772;8.846;2022-09-02T16:39:55;2.20;;;2.00;;
253;SDS011;590;48.772;8.846;2022-09-02T16:42:23;2.30;;;2.10;;
253;SDS011;590;48.772;8.846;2022-09-02T16:44:51;2.10;;;1.83;;
253;SDS011;590;48.772;8.846;2022-09-02T16:47:19;2.13;;;1.97;;
253;SDS011;590;48.772;8.846;2022-09-02T16:49:49;1.93;;;1.83;;
253;SDS011;590;48.772;8.846;2022-09-02T16:52:17;1.93;;;1.83;;
253;SDS011;590;48.772;8.846;2022-09-02T16:54:44;2.00;;;1.90;;
253;SDS011;590;48.772;8.846;2022-09-02T16:57:12;2.30;;;2.10;;